Time;durP1;ratioP1;P1;durP2;ratioP2;P2;SDS_P1;SDS_P2;PMS_P1;PMS_P2;Temp;Humidity;BMP_temperature;BMP_pressure;BME280_temperature;BME280_humidity;BME280_pressure;Samples;Min_cycle;Max_cycle;Signal;HPM_P1;HPM_P2
2023/12/05 00:00:33;;;;;;;19.27;8.70;;;;;;;0.56;100.00;99249.59;5044951;28;20662;-71
2023/12/05 00:02:59;;;;;;;17.60;7.60;;;;;;;0.56;100.00;99248.69;5049004;28;20272;-72
2023/12/05 00:05:26;;;;;;;18.83;8.37;;;;;;;0.53;100.00;99256.41;5043598;28;20230;-71
2023/12/05 00:07:52;;;;;;;18.70;8.20;;;;;;;0.59;100.00;99251.41;5049036;28;20225;-71
2023/12/05 00:10:19;;;;;;;19.27;9.10;;;;;;;0.59;100.00;99252.28;5028363;28;20639;-71
2023/12/05 00:12:45;;;;;;;16.93;8.17;;;;;;;0.59;100.00;99246.19;5047293;28;20209;-71
2023/12/05 00:15:12;;;;;;;17.00;8.37;;;;;;;0.57;100.00;99246.16;5041027;28;20210;-72
2023/12/05 00:17:39;;;;;;;19.67;8.33;;;;;;;0.57;100.00;99234.84;5044130;28;20206;-71
2023/12/05 00:20:06;;;;;;;19.10;8.37;;;;;;;0.58;100.00;99234.00;5022511;28;20307;-71
2023/12/05 00:22:32;;;;;;;18.70;8.20;;;;;;;0.59;100.00;99228.84;5041944;28;20207;-71
2023/12/05 00:24:59;;;;;;;19.33;8.23;;;;;;;0.59;100.00;99226.25;5046962;28;20664;-71
2023/12/05 00:27:25;;;;;;;18.63;8.83;;;;;;;0.61;100.00;99231.50;5027187;28;20213;-71
2023/12/05 00:29:51;;;;;;;19.93;8.50;;;;;;;0.57;100.00;99235.72;5026862;28;20276;-71
2023/12/05 00:32:18;;;;;;;17.57;7.97;;;;;;;0.55;100.00;99240.00;5043697;28;20693;-71
2023/12/05 00:34:45;;;;;;;16.67;7.70;;;;;;;0.58;100.00;99234.00;5048505;28;20288;-70
2023/12/05 00:37:12;;;;;;;16.67;7.60;;;;;;;0.58;100.00;99234.88;5031357;28;20194;-71
2023/12/05 00:39:39;;;;;;;16.43;8.13;;;;;;;0.67;100.00;99230.81;5022208;28;20199;-71
2023/12/05 00:42:05;;;;;;;19.50;8.40;;;;;;;0.68;100.00;99237.81;5047415;28;20220;-71
2023/12/05 00:44:32;;;;;;;19.83;9.13;;;;;;;0.67;100.00;99231.69;5026380;28;20215;-70
2023/12/05 00:47:04;;;;;;;19.97;9.17;;;;;;;0.70;100.00;99224.00;5028769;28;20294;-70
2023/12/05 00:49:34;;;;;;;21.20;9.90;;;;;;;0.73;100.00;99234.50;5030217;28;20222;-70
2023/12/05 00:52:00;;;;;;;20.43;8.60;;;;;;;0.72;100.00;99227.53;5042619;28;20209;-71
2023/12/05 00:54:27;;;;;;;19.00;8.73;;;;;;;0.71;100.00;99225.75;5039913;28;20598;-70
2023/12/05 00:56:53;;;;;;;18.27;7.97;;;;;;;0.75;100.00;99221.53;5045002;28;20195;-72
2023/12/05 00:59:20;;;;;;;15.70;8.10;;;;;;;0.83;100.00;99222.69;5044275;28;20203;-71
2023/12/05 01:01:47;;;;;;;20.00;9.33;;;;;;;0.76;100.00;99229.41;5028541;28;20226;-70
2023/12/05 01:04:13;;;;;;;21.80;8.83;;;;;;;0.79;100.00;99221.69;5024589;28;20223;-72
2023/12/05 01:06:40;;;;;;;19.30;9.40;;;;;;;0.79;100.00;99226.88;5029499;28;20837;-72
2023/12/05 01:09:06;;;;;;;21.57;10.07;;;;;;;0.83;100.00;99217.47;5045370;28;20203;-70
2023/12/05 01:11:33;;;;;;;17.97;8.27;;;;;;;0.79;100.00;99226.88;5048374;28;20219;-72
2023/12/05 01:14:00;;;;;;;18.27;9.10;;;;;;;0.77;100.00;99214.66;5042998;28;20257;-70
2023/12/05 01:16:26;;;;;;;21.50;8.67;;;;;;;0.86;100.00;99218.47;5043843;28;20293;-70
2023/12/05 01:18:52;;;;;;;22.30;10.03;;;;;;;0.80;100.00;99214.75;5046991;28;20198;-70
2023/12/05 01:21:19;;;;;;;20.20;8.90;;;;;;;0.84;100.00;99221.88;5040541;28;20253;-71
2023/12/05 01:23:45;;;;;;;24.53;8.97;;;;;;;0.85;100.00;99221.03;5044011;28;20592;-71
2023/12/05 01:26:12;;;;;;;21.87;9.03;;;;;;;0.83;100.00;99220.09;5044207;28;20204;-71
2023/12/05 01:28:38;;;;;;;19.80;8.87;;;;;;;0.87;100.00;99217.63;5028327;28;20663;-70
2023/12/05 01:31:05;;;;;;;20.63;8.90;;;;;;;0.94;100.00;99224.81;5027908;28;20276;-70
2023/12/05 01:33:31;;;;;;;22.73;9.27;;;;;;;0.85;100.00;99229.72;5045159;28;20224;-70
2023/12/05 01:35:58;;;;;;;19.20;9.27;;;;;;;0.80;100.00;99225.16;5045922;28;20282;-70
2023/12/05 01:38:24;;;;;;;20.43;9.33;;;;;;;0.77;100.00;99222.47;5050597;28;20221;-71
2023/12/05 01:40:50;;;;;;;20.17;9.03;;;;;;;0.76;100.00;99234.59;5033068;28;20190;-71
2023/12/05 01:43:17;;;;;;;21.90;8.93;;;;;;;0.84;100.00;99229.69;5050622;28;20214;-70
2023/12/05 01:45:43;;;;;;;18.80;9.10;;;;;;;0.89;100.00;99229.00;5051475;28;20203;-71
2023/12/05 01:48:10;;;;;;;19.53;8.93;;;;;;;0.85;100.00;99224.50;5030904;28;20249;-71
2023/12/05 01:50:38;;;;;;;22.73;9.97;;;;;;;0.85;100.00;99221.91;5046946;28;20553;-71
2023/12/05 01:53:05;;;;;;;21.90;9.40;;;;;;;0.89;100.00;99225.50;5050594;28;20222;-71
2023/12/05 01:55:32;;;;;;;18.67;9.27;;;;;;;1.03;100.00;99216.41;5029412;28;20196;-71
2023/12/05 01:57:59;;;;;;;20.43;9.57;;;;;;;0.97;100.00;99215.31;5032970;28;20202;-71
2023/12/05 02:00:25;;;;;;;20.73;9.00;;;;;;;1.03;100.00;99223.34;5047055;28;20216;-71
2023/12/05 02:02:54;;;;;;;17.87;8.60;;;;;;;0.99;100.00;99211.03;5050935;28;21950;-71
2023/12/05 02:05:21;;;;;;;21.73;10.10;;;;;;;0.99;100.00;99208.44;5045571;28;20666;-72
2023/12/05 02:07:48;;;;;;;23.20;9.93;;;;;;;1.00;100.00;99215.41;5051963;28;20458;-71
2023/12/05 02:10:14;;;;;;;20.30;9.33;;;;;;;1.02;100.00;99216.34;5030655;28;20230;-72
2023/12/05 02:12:41;;;;;;;22.00;9.67;;;;;;;1.05;100.00;99216.44;5045401;28;20202;-72
2023/12/05 02:15:08;;;;;;;20.80;9.87;;;;;;;1.05;100.00;99214.72;5045279;28;20282;-72
2023/12/05 02:18:09;;;;;;;24.43;9.87;;;;;;;1.03;100.00;99215.50;5051285;28;20230;-71
2023/12/05 02:20:46;;;;;;;20.00;9.17;;;;;;;1.10;100.00;99220.06;5003186;28;20636;-71
2023/12/05 02:23:26;;;;;;;21.57;8.93;;;;;;;1.04;100.00;99212.06;5033402;28;20234;-72
2023/12/05 02:25:55;;;;;;;18.97;8.20;;;;;;;1.16;100.00;99209.84;5043276;28;20894;-72
2023/12/05 02:28:24;;;;;;;21.70;9.37;;;;;;;1.20;100.00;99210.00;5049757;28;20244;-73
2023/12/05 02:30:50;;;;;;;16.07;7.80;;;;;;;1.18;100.00;99197.72;5041743;28;20219;-71
2023/12/05 02:33:17;;;;;;;20.87;9.07;;;;;;;1.19;100.00;99200.38;5046138;28;20733;-71
2023/12/05 02:35:45;;;;;;;19.00;8.53;;;;;;;1.15;100.00;99208.94;5046552;28;20203;-72
2023/12/05 02:38:29;;;;;;;23.93;9.73;;;;;;;1.20;100.00;99207.41;5048935;28;20206;-72
2023/12/05 02:41:11;;;;;;;24.93;9.57;;;;;;;1.22;100.00;99205.72;5049587;28;20278;-72
2023/12/05 02:43:48;;;;;;;18.23;9.97;;;;;;;1.20;100.00;99194.38;5045566;28;20219;-72
2023/12/05 02:46:17;;;;;;;21.63;10.00;;;;;;;1.23;100.00;99198.78;5045357;28;20232;-72
2023/12/05 02:48:44;;;;;;;21.03;10.03;;;;;;;1.27;100.00;99197.16;5027703;28;20203;-71
2023/12/05 02:51:11;;;;;;;21.47;8.40;;;;;;;1.22;100.00;99197.91;5048067;28;20222;-71
2023/12/05 02:53:38;;;;;;;17.23;8.57;;;;;;;1.21;100.00;99196.13;5025467;28;20959;-72
2023/12/05 02:56:05;;;;;;;21.60;9.93;;;;;;;1.24;100.00;99198.84;5045099;28;20212;-72
2023/12/05 02:58:31;;;;;;;21.93;10.50;;;;;;;1.26;100.00;99204.09;5044575;28;20212;-71
2023/12/05 03:00:59;;;;;;;21.43;10.33;;;;;;;1.25;100.00;99199.72;5050598;28;20201;-71
2023/12/05 03:03:26;;;;;;;21.87;9.90;;;;;;;1.23;100.00;99196.19;5046388;28;20227;-72
2023/12/05 03:05:53;;;;;;;21.50;10.13;;;;;;;1.27;100.00;99186.72;5049269;28;20292;-71
2023/12/05 03:08:19;;;;;;;26.67;11.33;;;;;;;1.27;100.00;99198.03;5048530;28;20200;-73
2023/12/05 03:10:45;;;;;;;21.57;10.00;;;;;;;1.26;100.00;99198.88;5031042;28;20222;-71
2023/12/05 03:13:25;;;;;;;22.63;10.27;;;;;;;1.36;100.00;99192.22;5046902;28;20272;-72
2023/12/05 03:15:51;;;;;;;20.80;9.07;;;;;;;1.32;100.00;99186.03;5032092;28;20209;-72
2023/12/05 03:18:18;;;;;;;22.17;10.00;;;;;;;1.29;100.00;99185.06;5045721;28;20213;-72
2023/12/05 03:20:45;;;;;;;22.23;10.70;;;;;;;1.27;100.00;99186.72;5031587;28;20662;-71
2023/12/05 03:23:11;;;;;;;20.77;9.50;;;;;;;1.33;100.00;99193.00;5029016;28;20224;-71
2023/12/05 03:25:38;;;;;;;21.93;9.50;;;;;;;1.35;100.00;99198.28;5046149;28;20287;-72
2023/12/05 03:28:04;;;;;;;21.77;9.47;;;;;;;1.39;100.00;99187.09;5046785;28;20298;-72
2023/12/05 03:30:30;;;;;;;23.13;9.77;;;;;;;1.38;100.00;99193.16;5043025;28;20211;-71
2023/12/05 03:32:57;;;;;;;24.00;10.90;;;;;;;1.41;100.00;99191.50;5050468;28;20270;-73
2023/12/05 03:35:23;;;;;;;20.87;8.87;;;;;;;1.39;100.00;99193.19;5042434;28;20704;-73
2023/12/05 03:37:50;;;;;;;22.57;9.73;;;;;;;1.39;100.00;99184.47;5043975;28;20294;-72
2023/12/05 03:40:16;;;;;;;25.47;10.40;;;;;;;1.38;100.00;99183.59;5047042;28;20192;-72
2023/12/05 03:42:43;;;;;;;21.90;10.37;;;;;;;1.35;100.00;99186.13;5030170;28;20226;-72
2023/12/05 03:45:09;;;;;;;23.27;10.80;;;;;;;1.41;100.00;99186.28;5049716;28;20654;-73
2023/12/05 03:47:35;;;;;;;22.43;10.13;;;;;;;1.39;100.00;99189.69;5044309;28;20199;-72
2023/12/05 03:50:02;;;;;;;20.10;10.20;;;;;;;1.40;100.00;99187.13;5041971;28;20195;-72
2023/12/05 03:52:29;;;;;;;22.00;10.53;;;;;;;1.34;100.00;99186.97;5030236;28;20210;-72
2023/12/05 03:54:55;;;;;;;24.73;9.97;;;;;;;1.38;100.00;99191.44;5048639;28;20254;-72
2023/12/05 03:57:22;;;;;;;22.30;9.77;;;;;;;1.44;100.00;99195.94;5045736;28;20203;-72
2023/12/05 03:59:48;;;;;;;22.03;10.73;;;;;;;1.45;100.00;99189.88;5043502;28;20278;-72
2023/12/05 04:02:15;;;;;;;25.50;10.10;;;;;;;1.40;100.00;99188.84;5046159;28;20676;-73
2023/12/05 04:04:44;;;;;;;19.50;9.53;;;;;;;1.43;100.00;99188.94;5030672;28;20714;-72
2023/12/05 04:07:10;;;;;;;21.77;9.27;;;;;;;1.41;100.00;99190.63;5049681;28;20226;-72
2023/12/05 04:09:37;;;;;;;20.53;9.57;;;;;;;1.44;100.00;99193.31;5047954;28;20210;-72
2023/12/05 04:12:03;;;;;;;21.23;9.83;;;;;;;1.42;100.00;99195.00;5044647;28;20739;-72
2023/12/05 04:14:30;;;;;;;18.00;8.93;;;;;;;1.44;100.00;99193.31;5068258;23;20226;-70
2023/12/05 04:16:56;;;;;;;20.63;9.40;;;;;;;1.48;100.00;99195.19;5047715;28;20202;-71
2023/12/05 04:19:23;;;;;;;22.13;8.93;;;;;;;1.49;100.00;99200.44;5066841;28;20302;-70
2023/12/05 04:21:49;;;;;;;26.20;11.10;;;;;;;1.47;100.00;99196.03;5060952;28;20256;-70
2023/12/05 04:24:15;;;;;;;21.40;9.73;;;;;;;1.41;100.00;99190.63;5048475;28;20230;-71
2023/12/05 04:26:42;;;;;;;27.20;9.63;;;;;;;1.54;100.00;99188.41;5068622;28;20202;-71
2023/12/05 04:29:08;;;;;;;27.90;10.63;;;;;;;1.50;100.00;99185.69;5047051;28;20213;-71
2023/12/05 04:31:35;;;;;;;18.80;8.97;;;;;;;1.59;100.00;99193.78;5063522;28;20597;-70
2023/12/05 04:34:01;;;;;;;22.20;9.77;;;;;;;1.61;100.00;99188.63;5066074;28;20316;-71
2023/12/05 04:36:28;;;;;;;24.43;9.97;;;;;;;1.62;100.00;99193.91;5048234;28;20305;-70
2023/12/05 04:38:54;;;;;;;29.77;10.53;;;;;;;1.67;100.00;99194.91;5066623;28;20289;-71
2023/12/05 04:41:21;;;;;;;26.67;10.47;;;;;;;1.63;100.00;99203.50;5065378;28;20213;-71
2023/12/05 04:43:47;;;;;;;21.80;10.57;;;;;;;1.57;100.00;99198.94;5062515;28;20709;-71
2023/12/05 04:46:14;;;;;;;26.57;9.87;;;;;;;1.64;100.00;99200.03;5063489;28;20641;-72
2023/12/05 04:48:40;;;;;;;25.73;10.20;;;;;;;1.66;100.00;99207.91;5040974;28;20467;-71
2023/12/05 04:51:07;;;;;;;25.57;10.63;;;;;;;1.63;100.00;99207.81;5066679;28;20223;-70
2023/12/05 04:53:33;;;;;;;27.87;11.10;;;;;;;1.67;100.00;99202.75;5066320;28;20551;-70
2023/12/05 04:55:59;;;;;;;23.20;10.27;;;;;;;1.73;100.00;99202.03;5063038;28;20600;-70
2023/12/05 04:58:28;;;;;;;24.10;9.90;;;;;;;1.68;100.00;99195.78;5066821;28;20207;-71
2023/12/05 05:00:54;;;;;;;25.80;9.97;;;;;;;1.77;100.00;99196.94;5061972;28;20198;-71
2023/12/05 05:03:23;;;;;;;23.07;10.70;;;;;;;1.71;100.00;99201.09;5047833;28;20221;-71
2023/12/05 05:05:50;;;;;;;21.33;9.93;;;;;;;1.72;100.00;99197.66;5065047;28;20226;-70
2023/12/05 05:08:17;;;;;;;24.13;11.00;;;;;;;1.74;100.00;99198.56;5063046;28;20203;-72
2023/12/05 05:10:43;;;;;;;20.73;9.87;;;;;;;1.75;100.00;99197.72;5066870;28;20219;-70
2023/12/05 05:13:09;;;;;;;23.47;10.20;;;;;;;1.73;100.00;99197.69;5059903;28;20216;-70
2023/12/05 05:15:36;;;;;;;26.53;10.47;;;;;;;1.74;100.00;99199.47;5063609;28;20994;-69
2023/12/05 05:18:02;;;;;;;23.40;10.43;;;;;;;1.75;100.00;99198.63;5065871;28;20196;-71
2023/12/05 05:20:29;;;;;;;22.63;10.63;;;;;;;1.83;100.00;99199.72;5059326;28;20209;-72
2023/12/05 05:22:55;;;;;;;20.80;10.13;;;;;;;1.80;100.00;99193.53;5063021;28;20208;-70
2023/12/05 05:25:22;;;;;;;26.53;11.10;;;;;;;1.91;100.00;99202.53;5060269;28;20214;-68
2023/12/05 05:27:48;;;;;;;22.93;11.77;;;;;;;1.88;100.00;99189.41;5061963;28;20208;-70
2023/12/05 05:30:15;;;;;;;21.07;9.40;;;;;;;1.91;100.00;99204.25;5064869;28;20196;-70
2023/12/05 05:32:41;;;;;;;26.17;11.17;;;;;;;1.90;100.00;99203.38;5043689;28;20716;-71
2023/12/05 05:35:08;;;;;;;23.13;9.97;;;;;;;1.91;100.00;99206.88;5051191;28;20310;-70
2023/12/05 05:37:34;;;;;;;26.00;10.73;;;;;;;1.95;100.00;99200.91;5048718;28;20206;-70
2023/12/05 05:40:01;;;;;;;27.03;10.63;;;;;;;1.95;100.00;99198.28;5048881;28;20198;-71
2023/12/05 05:42:29;;;;;;;21.83;11.30;;;;;;;1.97;100.00;99196.59;5059509;28;20210;-71
2023/12/05 05:44:55;;;;;;;26.53;10.37;;;;;;;1.95;100.00;99191.34;5047304;28;20278;-71
2023/12/05 05:47:21;;;;;;;23.47;10.07;;;;;;;1.94;100.00;99200.00;5060970;28;20204;-70
2023/12/05 05:49:48;;;;;;;19.93;9.97;;;;;;;1.92;100.00;99201.69;5065714;28;20210;-71
2023/12/05 05:52:14;;;;;;;22.80;10.37;;;;;;;1.93;100.00;99199.97;5065104;28;20231;-70
2023/12/05 05:54:41;;;;;;;27.40;10.37;;;;;;;1.92;100.00;99204.31;5058594;28;20317;-71
2023/12/05 05:57:10;;;;;;;23.47;10.20;;;;;;;1.94;100.00;99196.53;5061548;28;20209;-71
2023/12/05 05:59:36;;;;;;;24.70;9.67;;;;;;;1.93;100.00;99211.31;5065259;28;20205;-70
2023/12/05 06:02:03;;;;;;;21.43;9.27;;;;;;;1.96;100.00;99189.63;5063193;28;20195;-71
2023/12/05 06:04:30;;;;;;;20.73;10.33;;;;;;;2.06;100.00;99207.34;5065697;28;20274;-70
2023/12/05 06:06:56;;;;;;;22.97;10.37;;;;;;;1.96;100.00;99202.66;5060535;28;20256;-71
2023/12/05 06:09:23;;;;;;;27.13;9.93;;;;;;;1.94;100.00;99202.63;5060474;28;20213;-70
2023/12/05 06:11:50;;;;;;;24.60;9.77;;;;;;;1.96;100.00;99211.38;5048282;28;20711;-71
2023/12/05 06:14:16;;;;;;;22.10;9.53;;;;;;;1.92;100.00;99203.44;5062895;28;20536;-70
2023/12/05 06:16:42;;;;;;;20.77;9.67;;;;;;;1.95;100.00;99200.91;5062332;28;20207;-71
2023/12/05 06:19:09;;;;;;;22.37;9.83;;;;;;;1.98;100.00;99207.09;5057738;28;20205;-71
2023/12/05 06:21:35;;;;;;;24.00;11.20;;;;;;;2.01;100.00;99206.31;5046637;28;20195;-70
2023/12/05 06:24:02;;;;;;;25.60;11.43;;;;;;;1.79;100.00;99182.19;5065455;28;20497;-71
2023/12/05 06:26:28;;;;;;;22.30;10.77;;;;;;;1.92;100.00;99209.53;5050231;28;20214;-71
2023/12/05 06:28:55;;;;;;;20.73;9.67;;;;;;;2.03;100.00;99207.25;5067342;28;20196;-71
2023/12/05 06:31:22;;;;;;;20.47;9.27;;;;;;;1.94;100.00;99215.69;5064627;28;20219;-71
2023/12/05 06:33:49;;;;;;;22.60;10.20;;;;;;;1.88;100.00;99218.13;5068463;28;20230;-72
2023/12/05 06:36:16;;;;;;;23.90;9.97;;;;;;;1.91;100.00;99215.59;5067229;28;20293;-69
2023/12/05 06:38:43;;;;;;;24.00;10.10;;;;;;;1.91;100.00;99217.31;5042981;28;20209;-68
2023/12/05 06:41:09;;;;;;;20.07;9.90;;;;;;;1.93;100.00;99220.84;5065245;28;20651;-71
2023/12/05 06:43:35;;;;;;;19.67;9.03;;;;;;;1.92;100.00;99226.91;5063313;28;20227;-70
2023/12/05 06:46:02;;;;;;;18.70;8.13;;;;;;;1.95;100.00;99224.41;5069842;28;20709;-71
2023/12/05 06:48:28;;;;;;;21.57;9.43;;;;;;;1.97;100.00;99223.59;5064562;28;20231;-70
2023/12/05 06:50:55;;;;;;;25.03;10.40;;;;;;;2.01;100.00;99225.47;5059818;28;20202;-73
2023/12/05 06:53:21;;;;;;;21.07;9.03;;;;;;;2.09;100.00;99229.19;5045152;28;20209;-73
2023/12/05 06:55:48;;;;;;;21.37;9.47;;;;;;;2.11;100.00;99234.44;5044280;28;20230;-71
2023/12/05 06:58:14;;;;;;;23.13;9.67;;;;;;;2.09;100.00;99228.31;5065089;28;20196;-71
2023/12/05 07:00:42;;;;;;;27.50;11.13;;;;;;;2.09;100.00;99238.75;5062839;28;20273;-71
2023/12/05 07:03:08;;;;;;;31.27;10.97;;;;;;;2.12;100.00;99242.31;5063051;28;20209;-69
2023/12/05 07:05:35;;;;;;;29.20;12.13;;;;;;;2.11;100.00;99252.72;5059699;28;20250;-70
2023/12/05 07:08:01;;;;;;;24.97;12.47;;;;;;;2.07;100.00;99248.25;5068859;28;20205;-72
2023/12/05 07:10:31;;;;;;;24.37;10.23;;;;;;;2.12;100.00;99254.50;5064081;28;20308;-71
2023/12/05 07:12:58;;;;;;;22.37;8.87;;;;;;;2.16;100.00;99249.41;5065599;28;20224;-71
2023/12/05 07:15:24;;;;;;;20.87;9.70;;;;;;;2.13;100.00;99254.53;5070295;28;20223;-71
2023/12/05 07:17:51;;;;;;;23.30;10.23;;;;;;;2.20;100.00;99256.47;5065018;28;20196;-72
2023/12/05 07:20:17;;;;;;;22.53;10.33;;;;;;;2.16;100.00;99257.25;5067680;28;20662;-72
2023/12/05 07:22:44;;;;;;;25.53;9.90;;;;;;;2.18;100.00;99254.66;5069217;28;20672;-71
2023/12/05 07:25:10;;;;;;;22.13;9.77;;;;;;;2.22;100.00;99266.09;5071331;28;20717;-71
2023/12/05 07:27:36;;;;;;;20.90;8.97;;;;;;;2.25;100.00;99276.63;5070695;28;20202;-72
2023/12/05 07:30:03;;;;;;;18.07;9.10;;;;;;;2.34;100.00;99272.53;5070688;28;20589;-72
2023/12/05 07:32:30;;;;;;;22.10;9.87;;;;;;;2.34;100.00;99271.66;5067992;28;20307;-71
2023/12/05 07:34:57;;;;;;;18.87;9.00;;;;;;;2.30;100.00;99273.28;5069801;28;20226;-71
2023/12/05 07:37:24;;;;;;;21.63;10.63;;;;;;;2.26;100.00;99288.84;5070932;28;20307;-71
2023/12/05 07:39:50;;;;;;;24.07;10.70;;;;;;;2.28;100.00;99277.59;5068164;28;20206;-72
2023/12/05 07:42:17;;;;;;;26.27;10.73;;;;;;;2.33;100.00;99289.03;5066631;28;20223;-71
2023/12/05 07:44:43;;;;;;;22.03;9.67;;;;;;;2.27;100.00;99286.25;5070604;28;20223;-72
2023/12/05 07:47:11;;;;;;;25.80;11.47;;;;;;;2.18;100.00;99281.66;5070702;28;20231;-72
2023/12/05 07:49:42;;;;;;;21.20;9.50;;;;;;;2.19;100.00;99280.81;5068930;28;20230;-72
2023/12/05 07:52:08;;;;;;;16.60;8.87;;;;;;;2.32;100.00;99289.00;5053260;28;20849;-73
2023/12/05 07:54:35;;;;;;;18.43;9.40;;;;;;;2.33;100.00;99283.81;5070990;28;20278;-71
2023/12/05 07:57:01;;;;;;;22.27;10.00;;;;;;;2.39;100.00;99296.16;5067926;28;20619;-71
2023/12/05 07:59:27;;;;;;;20.00;9.33;;;;;;;2.40;100.00;99296.25;5065337;28;20200;-72
2023/12/05 08:01:54;;;;;;;22.23;9.87;;;;;;;2.41;100.00;99303.25;5064778;28;20283;-72
2023/12/05 08:04:20;;;;;;;21.33;8.83;;;;;;;2.48;100.00;99297.34;5065982;28;20316;-72
2023/12/05 08:06:50;;;;;;;21.93;9.47;;;;;;;2.55;100.00;99303.59;5069891;28;20206;-72
2023/12/05 08:09:16;;;;;;;19.33;9.50;;;;;;;2.55;100.00;99297.50;5066247;28;20267;-70
2023/12/05 08:11:43;;;;;;;19.27;9.07;;;;;;;2.56;100.00;99308.00;5063344;28;20311;-72
2023/12/05 08:14:09;;;;;;;22.97;9.13;;;;;;;2.60;100.00;99301.13;5046976;28;20564;-72
2023/12/05 08:16:38;;;;;;;15.70;7.97;;;;;;;2.63;100.00;99294.25;5065665;28;20292;-70
2023/12/05 08:19:04;;;;;;;15.77;7.63;;;;;;;2.71;100.00;99303.16;5068195;28;20284;-72
2023/12/05 08:21:31;;;;;;;18.07;8.13;;;;;;;2.78;100.00;99304.22;5069137;28;20196;-70
2023/12/05 08:23:57;;;;;;;20.67;9.10;;;;;;;2.85;100.00;99306.16;5064860;28;20707;-72
2023/12/05 08:26:24;;;;;;;17.50;8.33;;;;;;;2.87;100.00;99319.28;5052828;28;20402;-72
2023/12/05 08:28:50;;;;;;;20.87;9.37;;;;;;;2.75;100.00;99304.13;5069783;28;20204;-73
2023/12/05 08:31:16;;;;;;;20.00;8.90;;;;;;;2.76;100.00;99314.63;5070109;28;20221;-72
2023/12/05 08:33:43;;;;;;;16.77;8.67;;;;;;;2.74;100.00;99308.47;5071301;28;20232;-70
2023/12/05 08:36:10;;;;;;;16.83;8.30;;;;;;;2.80;100.00;99316.50;5052902;28;20291;-72
2023/12/05 08:38:36;;;;;;;15.57;7.43;;;;;;;2.88;100.00;99314.09;5069398;28;20204;-71
2023/12/05 08:41:03;;;;;;;17.90;8.70;;;;;;;2.92;100.00;99323.78;5067838;28;20391;-73
2023/12/05 08:43:29;;;;;;;16.83;8.03;;;;;;;2.88;100.00;99328.91;5069645;28;20592;-73
2023/12/05 08:45:56;;;;;;;21.47;8.83;;;;;;;2.85;100.00;99329.69;5069687;28;20242;-73
2023/12/05 08:48:22;;;;;;;16.83;8.77;;;;;;;2.87;100.00;99328.00;5050234;28;20209;-71
2023/12/05 08:50:49;;;;;;;18.93;8.10;;;;;;;2.87;100.00;99324.50;5066192;28;20196;-72
2023/12/05 08:53:15;;;;;;;16.13;8.30;;;;;;;2.94;100.00;99327.31;5065459;28;20269;-72
2023/12/05 08:55:43;;;;;;;19.50;8.97;;;;;;;2.94;100.00;99321.22;5068072;28;20230;-73
2023/12/05 08:58:10;;;;;;;18.80;8.70;;;;;;;2.97;100.00;99330.03;5049895;28;20246;-72
2023/12/05 09:00:37;;;;;;;20.03;9.03;;;;;;;3.04;100.00;99331.94;5067925;28;20254;-73
2023/12/05 09:03:04;;;;;;;16.77;8.00;;;;;;;3.08;100.00;99330.28;5064060;28;20202;-72
2023/12/05 09:05:30;;;;;;;15.60;7.57;;;;;;;3.12;100.00;99324.28;5068483;28;20215;-72
2023/12/05 09:07:57;;;;;;;14.97;7.67;;;;;;;3.24;100.00;99329.84;5068730;28;20216;-72
2023/12/05 09:10:23;;;;;;;14.00;7.73;;;;;;;3.26;100.00;99327.28;5066137;28;20202;-71
2023/12/05 09:12:50;;;;;;;15.57;7.70;;;;;;;3.31;100.00;99323.94;5062584;28;20250;-71
2023/12/05 09:15:16;;;;;;;15.00;8.23;;;;;;;3.41;100.00;99328.53;5046562;28;20283;-73
2023/12/05 09:17:44;;;;;;;16.17;7.50;;;;;;;3.43;100.00;99342.53;5068312;28;20226;-71
2023/12/05 09:20:10;;;;;;;17.13;7.77;;;;;;;3.44;100.00;99341.69;5051982;28;20256;-73
2023/12/05 09:22:37;;;;;;;14.67;7.60;;;;;;;3.47;100.00;99338.25;5069126;28;20323;-73
2023/12/05 09:25:04;;;;;;;18.80;8.43;;;;;;;3.53;100.00;99346.25;5068859;28;20222;-73
2023/12/05 09:27:30;;;;;;;14.70;7.63;;;;;;;3.66;100.00;99345.72;5069443;28;20688;-71
2023/12/05 09:29:56;;;;;;;20.27;8.40;;;;;;;3.74;100.00;99346.78;5049088;28;20214;-72
2023/12/05 09:32:23;;;;;;;16.40;8.10;;;;;;;3.88;100.00;99348.84;5056631;28;20305;-72
2023/12/05 09:34:49;;;;;;;20.50;8.07;;;;;;;4.00;100.00;99349.09;5069183;28;20640;-72
2023/12/05 09:37:16;;;;;;;16.10;8.03;;;;;;;4.24;100.00;99346.16;5051752;28;20553;-74
2023/12/05 09:39:42;;;;;;;18.63;8.70;;;;;;;4.35;100.00;99357.75;5068608;28;20204;-71
2023/12/05 09:42:13;;;;;;;20.27;8.03;;;;;;;4.38;100.00;99347.31;5068981;28;20256;-72
2023/12/05 09:44:47;;;;;;;21.20;8.50;;;;;;;4.40;100.00;99353.47;5061832;28;20279;-72
2023/12/05 09:47:20;;;;;;;14.77;7.20;;;;;;;4.47;100.00;99355.41;5058433;28;20666;-72
2023/12/05 09:49:48;;;;;;;15.63;7.07;;;;;;;4.52;100.00;99361.63;5069111;28;20281;-73
2023/12/05 09:52:14;;;;;;;17.23;7.20;;;;;;;4.46;100.00;99353.66;5069664;28;20212;-73
2023/12/05 09:54:44;;;;;;;16.33;7.00;;;;;;;4.50;100.00;99346.72;5068569;28;20343;-73
2023/12/05 09:57:12;;;;;;;14.83;6.73;;;;;;;4.58;100.00;99345.13;5065777;28;20253;-73
2023/12/05 09:59:39;;;;;;;12.20;6.97;;;;;;;4.72;100.00;99344.53;5073221;28;20204;-71
2023/12/05 10:02:07;;;;;;;17.03;7.60;;;;;;;4.78;100.00;99342.91;5055732;28;20198;-73
2023/12/05 10:04:44;;;;;;;15.83;7.90;;;;;;;4.86;100.00;99350.09;5073580;28;20220;-74
2023/12/05 10:07:12;;;;;;;17.40;8.77;;;;;;;4.87;100.00;99346.59;5070015;28;20194;-73
2023/12/05 10:09:40;;;;;;;16.93;7.97;;;;;;;4.76;100.00;99340.25;5073733;28;20302;-73
2023/12/05 10:12:08;;;;;;;16.07;8.40;;;;;;;4.64;100.00;99340.00;5050868;28;20782;-74
2023/12/05 10:14:36;;;;;;;14.90;8.13;;;;;;;4.60;100.00;99341.69;5069644;23;20281;-70
2023/12/05 10:17:03;;;;;;;18.87;9.37;;;;;;;4.65;100.00;99352.25;5069460;28;20695;-71
2023/12/05 10:19:30;;;;;;;18.10;8.73;;;;;;;4.62;100.00;99339.09;5072943;28;20198;-72
2023/12/05 10:21:57;;;;;;;16.40;8.80;;;;;;;4.59;100.00;99345.16;5072506;28;20279;-72
2023/12/05 10:24:23;;;;;;;19.30;9.17;;;;;;;4.50;100.00;99336.22;5073059;28;20222;-72
2023/12/05 10:26:50;;;;;;;18.53;7.90;;;;;;;4.49;100.00;99339.72;5047832;28;20213;-76
2023/12/05 10:29:17;;;;;;;18.33;7.80;;;;;;;4.35;100.00;99337.66;5054901;28;20339;-72
2023/12/05 10:31:43;;;;;;;12.10;6.43;;;;;;;4.39;100.00;99334.25;5071359;28;20287;-72
2023/12/05 10:34:10;;;;;;;11.27;5.50;;;;;;;4.42;100.00;99333.47;5072230;28;20286;-74
2023/12/05 10:36:36;;;;;;;11.17;6.67;;;;;;;4.50;100.00;99338.84;5072354;28;20282;-75
2023/12/05 10:39:05;;;;;;;19.90;7.80;;;;;;;4.58;100.00;99345.13;5071705;28;20201;-76
2023/12/05 10:41:31;;;;;;;16.10;7.20;;;;;;;4.63;100.00;99343.50;5061686;28;20200;-72
2023/12/05 10:43:58;;;;;;;17.03;7.87;;;;;;;4.66;100.00;99340.91;5071918;28;20242;-72
2023/12/05 10:46:26;;;;;;;14.67;5.37;;;;;;;4.72;100.00;99339.31;5072460;28;20231;-74
2023/12/05 10:48:54;;;;;;;7.43;4.37;;;;;;;4.79;100.00;99340.28;5071024;28;20208;-72
2023/12/05 10:51:25;;;;;;;11.27;6.50;;;;;;;4.90;100.00;99344.03;5067101;28;20203;-71
2023/12/05 10:53:52;;;;;;;6.67;3.83;;;;;;;4.98;100.00;99336.31;5053551;28;20218;-72
2023/12/05 10:56:19;;;;;;;10.27;5.03;;;;;;;4.98;100.00;99331.94;5050665;28;20576;-72
2023/12/05 10:58:47;;;;;;;10.43;4.53;;;;;;;5.06;100.00;99334.69;5071140;28;20198;-74
2023/12/05 11:01:14;;;;;;;5.47;3.20;;;;;;;5.12;100.00;99332.19;5052814;28;20207;-73
2023/12/05 11:03:41;;;;;;;6.37;3.10;;;;;;;5.16;100.00;99330.50;5071548;28;20258;-75
2023/12/05 11:06:08;;;;;;;4.00;2.73;;;;;;;5.20;100.00;99327.06;5071947;28;20224;-76
2023/12/05 11:08:35;;;;;;;6.73;3.70;;;;;;;5.17;100.00;99325.28;5070605;28;20240;-73
2023/12/05 11:11:03;;;;;;;3.13;2.13;;;;;;;5.13;100.00;99309.44;5070840;28;20485;-71
2023/12/05 11:13:34;;;;;;;6.23;2.87;;;;;;;5.18;100.00;99324.41;5071682;28;20221;-74
2023/12/05 11:16:16;;;;;;;6.00;2.83;;;;;;;5.23;100.00;99324.53;5069770;28;20710;-73
2023/12/05 11:18:45;;;;;;;5.50;3.20;;;;;;;5.20;100.00;99317.47;5071172;28;20607;-72
2023/12/05 11:21:15;;;;;;;5.67;3.03;;;;;;;5.31;100.00;99321.16;5046494;28;20199;-71
2023/12/05 11:24:09;;;;;;;4.43;2.30;;;;;;;5.38;100.00;99323.88;5070699;28;20200;-76